RYR27QJ EGNM-LEIB
Flight info
| Callsign | RYR27QJ |
|---|---|
| Flight time | N/A |
| Altitude | 23000 |
| Route | EGNM/14 POL DCT MCT DCT LISTO P18 STAFA L8 HON/N0453F350 UN859 SOPIL DCT BALAN DCT EVPOK DCT NARAK DCT GAI DCT LOMRA DCT ROCAN/N0463F310 DCT PUMAL N859 BCN Z174 CORDA |
| Aircraft | A320/M-SDE3FGHIRWY/LB1 |
Departure
| Time | N/A |
|---|---|
| Airport | Leeds Bradford Airport (EGNM) |
Arrival
| Time | 2026-05-01 15:29 |
|---|---|
| Airport | Ibiza Airport (LEIB) |
| Time | Latitude | Longitude | Altitude | Speed | Heading |
|---|---|---|---|---|---|
| 2026-05-01 13:38 | 49.61574 | 0.19019 | 35227 ft | 431 kts | 165° |
| 2026-05-01 13:38 | 49.58717 | 0.20180 | 35228 ft | 431 kts | 165° |
| 2026-05-01 13:39 | 49.52880 | 0.22548 | 35231 ft | 431 kts | 165° |
| 2026-05-01 13:39 | 49.47055 | 0.24883 | 35208 ft | 433 kts | 165° |
| 2026-05-01 13:40 | 49.41215 | 0.27222 | 35200 ft | 434 kts | 165° |
| 2026-05-01 13:40 | 49.35362 | 0.29566 | 35204 ft | 435 kts | 165° |
| 2026-05-01 13:41 | 49.30490 | 0.31503 | 35209 ft | 436 kts | 165° |
| 2026-05-01 13:41 | 49.24624 | 0.33926 | 35201 ft | 437 kts | 164° |
| 2026-05-01 13:42 | 49.18759 | 0.36433 | 35188 ft | 438 kts | 164° |
| 2026-05-01 13:42 | 49.12879 | 0.38934 | 35206 ft | 438 kts | 164° |
| 2026-05-01 13:43 | 49.06992 | 0.41412 | 35197 ft | 439 kts | 165° |
| 2026-05-01 13:43 | 49.01096 | 0.43880 | 35190 ft | 441 kts | 165° |
| 2026-05-01 13:44 | 48.95187 | 0.46334 | 35204 ft | 439 kts | 165° |
| 2026-05-01 13:44 | 48.89308 | 0.48778 | 35226 ft | 438 kts | 165° |
| 2026-05-01 13:45 | 48.83398 | 0.51238 | 35222 ft | 438 kts | 165° |
| 2026-05-01 13:45 | 48.77548 | 0.53650 | 35218 ft | 438 kts | 165° |
| 2026-05-01 13:46 | 48.71646 | 0.55985 | 35222 ft | 438 kts | 165° |
| 2026-05-01 13:46 | 48.65729 | 0.58272 | 35221 ft | 438 kts | 166° |
| 2026-05-01 13:47 | 48.59815 | 0.60567 | 35211 ft | 439 kts | 166° |
| 2026-05-01 13:47 | 48.53889 | 0.62876 | 35213 ft | 440 kts | 166° |
| 2026-05-01 13:48 | 48.47992 | 0.65198 | 35207 ft | 440 kts | 165° |
| 2026-05-01 13:48 | 48.42074 | 0.67625 | 35213 ft | 441 kts | 166° |
| 2026-05-01 13:49 | 48.36136 | 0.70067 | 35198 ft | 443 kts | 166° |
| 2026-05-01 13:49 | 48.30167 | 0.72489 | 35195 ft | 445 kts | 166° |
| 2026-05-01 13:50 | 48.24186 | 0.74895 | 35208 ft | 445 kts | 166° |
| 2026-05-01 13:50 | 48.18183 | 0.77272 | 35188 ft | 448 kts | 167° |
| 2026-05-01 13:51 | 48.12133 | 0.79638 | 35184 ft | 451 kts | 167° |
| 2026-05-01 13:51 | 48.06043 | 0.82011 | 35189 ft | 453 kts | 167° |
| 2026-05-01 13:52 | 47.99941 | 0.84397 | 35183 ft | 454 kts | 167° |
| 2026-05-01 13:52 | 47.93815 | 0.86800 | 35202 ft | 455 kts | 167° |
| 2026-05-01 13:53 | 47.87693 | 0.89179 | 35227 ft | 455 kts | 167° |
| 2026-05-01 13:53 | 47.78513 | 0.92742 | 35210 ft | 455 kts | 168° |
| 2026-05-01 13:54 | 47.72404 | 0.95102 | 35191 ft | 456 kts | 168° |
| 2026-05-01 13:54 | 47.66255 | 0.97484 | 35192 ft | 458 kts | 168° |
| 2026-05-01 13:55 | 47.60082 | 0.99865 | 35202 ft | 458 kts | 168° |
| 2026-05-01 13:55 | 47.53899 | 1.02242 | 35196 ft | 459 kts | 168° |
| 2026-05-01 13:56 | 47.47703 | 1.04611 | 35203 ft | 460 kts | 168° |
| 2026-05-01 13:56 | 47.41444 | 1.06352 | 35205 ft | 455 kts | 181° |
| 2026-05-01 13:57 | 47.35173 | 1.06253 | 35200 ft | 453 kts | 184° |
| 2026-05-01 13:57 | 47.28871 | 1.06099 | 35209 ft | 453 kts | 184° |
| 2026-05-01 13:58 | 47.22568 | 1.05958 | 35213 ft | 453 kts | 184° |
| 2026-05-01 13:58 | 47.16261 | 1.05817 | 35202 ft | 452 kts | 184° |
| 2026-05-01 13:59 | 47.09970 | 1.05676 | 35219 ft | 451 kts | 184° |
| 2026-05-01 13:59 | 47.03686 | 1.05540 | 35221 ft | 451 kts | 184° |
| 2026-05-01 14:00 | 46.97420 | 1.05354 | 35223 ft | 450 kts | 183° |
| 2026-05-01 14:00 | 46.91179 | 1.06438 | 35221 ft | 452 kts | 174° |
| 2026-05-01 14:01 | 46.84958 | 1.07838 | 35224 ft | 452 kts | 174° |
| 2026-05-01 14:01 | 46.78790 | 1.09219 | 35222 ft | 451 kts | 174° |
| 2026-05-01 14:02 | 46.72581 | 1.10614 | 35221 ft | 451 kts | 174° |
| 2026-05-01 14:02 | 46.66375 | 1.12004 | 35220 ft | 451 kts | 174° |
| 2026-05-01 14:03 | 46.60172 | 1.13381 | 35221 ft | 451 kts | 174° |
| 2026-05-01 14:03 | 46.53975 | 1.14765 | 35214 ft | 450 kts | 174° |
| 2026-05-01 14:04 | 46.47787 | 1.16141 | 35230 ft | 449 kts | 174° |
| 2026-05-01 14:04 | 46.42648 | 1.17273 | 35232 ft | 448 kts | 174° |
| 2026-05-01 14:05 | 46.35440 | 1.18862 | 35232 ft | 448 kts | 174° |
| 2026-05-01 14:05 | 46.29281 | 1.20221 | 35232 ft | 447 kts | 174° |
| 2026-05-01 14:06 | 46.23128 | 1.21572 | 35235 ft | 447 kts | 174° |
| 2026-05-01 14:06 | 46.17009 | 1.22914 | 35241 ft | 447 kts | 174° |
| 2026-05-01 14:07 | 46.10864 | 1.24261 | 35254 ft | 446 kts | 174° |
| 2026-05-01 14:08 | 46.01657 | 1.26263 | 35263 ft | 445 kts | 174° |
| 2026-05-01 14:08 | 45.95536 | 1.27585 | 35253 ft | 444 kts | 173° |
| 2026-05-01 14:09 | 45.89424 | 1.28918 | 35267 ft | 443 kts | 173° |
| 2026-05-01 14:09 | 45.83327 | 1.30245 | 35266 ft | 443 kts | 173° |
| 2026-05-01 14:10 | 45.77235 | 1.31564 | 35267 ft | 442 kts | 173° |
| 2026-05-01 14:10 | 45.71150 | 1.32866 | 35261 ft | 442 kts | 173° |
| 2026-05-01 14:11 | 45.65070 | 1.34166 | 35243 ft | 441 kts | 173° |
| 2026-05-01 14:11 | 45.55972 | 1.36129 | 35235 ft | 440 kts | 173° |
| 2026-05-01 14:12 | 45.49948 | 1.37425 | 35239 ft | 440 kts | 173° |
| 2026-05-01 14:12 | 45.43855 | 1.38733 | 35237 ft | 440 kts | 173° |
| 2026-05-01 14:13 | 45.38824 | 1.39801 | 35239 ft | 440 kts | 173° |
| 2026-05-01 14:13 | 45.31753 | 1.41289 | 35236 ft | 440 kts | 173° |
| 2026-05-01 14:14 | 45.25691 | 1.42575 | 35236 ft | 440 kts | 173° |
| 2026-05-01 14:14 | 45.19677 | 1.43848 | 35234 ft | 439 kts | 173° |
| 2026-05-01 14:15 | 45.13633 | 1.45128 | 35230 ft | 439 kts | 173° |
| 2026-05-01 14:15 | 45.07580 | 1.46402 | 35234 ft | 439 kts | 173° |
| 2026-05-01 14:16 | 45.01530 | 1.47672 | 35236 ft | 439 kts | 173° |
| 2026-05-01 14:16 | 44.95482 | 1.48946 | 35235 ft | 439 kts | 173° |
| 2026-05-01 14:17 | 44.89434 | 1.50211 | 35235 ft | 439 kts | 173° |
| 2026-05-01 14:17 | 44.83390 | 1.51472 | 35238 ft | 439 kts | 173° |
| 2026-05-01 14:18 | 44.77352 | 1.52731 | 35237 ft | 438 kts | 173° |
| 2026-05-01 14:18 | 44.72329 | 1.53777 | 35234 ft | 438 kts | 173° |
| 2026-05-01 14:19 | 44.65314 | 1.55233 | 35236 ft | 438 kts | 173° |
| 2026-05-01 14:19 | 44.59273 | 1.56485 | 35228 ft | 438 kts | 173° |
| 2026-05-01 14:20 | 44.50224 | 1.58355 | 35232 ft | 438 kts | 173° |
| 2026-05-01 14:21 | 44.44194 | 1.59594 | 35229 ft | 438 kts | 173° |
| 2026-05-01 14:21 | 44.38161 | 1.60835 | 35228 ft | 438 kts | 174° |
| 2026-05-01 14:22 | 44.29115 | 1.62697 | 35225 ft | 438 kts | 174° |
| 2026-05-01 14:22 | 44.23079 | 1.63927 | 35229 ft | 438 kts | 174° |
| 2026-05-01 14:23 | 44.17083 | 1.65147 | 35233 ft | 438 kts | 174° |
| 2026-05-01 14:23 | 44.11040 | 1.66381 | 35233 ft | 439 kts | 174° |
| 2026-05-01 14:24 | 44.05005 | 1.67609 | 35234 ft | 439 kts | 174° |
| 2026-05-01 14:24 | 43.98956 | 1.68833 | 35237 ft | 439 kts | 174° |
| 2026-05-01 14:25 | 43.92912 | 1.70060 | 35245 ft | 439 kts | 174° |
| 2026-05-01 14:25 | 43.86863 | 1.71283 | 35244 ft | 439 kts | 174° |
| 2026-05-01 14:26 | 43.78811 | 1.72911 | 35240 ft | 439 kts | 174° |
| 2026-05-01 14:27 | 43.72754 | 1.74126 | 35244 ft | 439 kts | 174° |
| 2026-05-01 14:27 | 43.66707 | 1.75335 | 35240 ft | 439 kts | 174° |
| 2026-05-01 14:28 | 43.57634 | 1.77148 | 35238 ft | 439 kts | 175° |
| 2026-05-01 14:28 | 43.51591 | 1.78347 | 35238 ft | 438 kts | 175° |
| 2026-05-01 14:29 | 43.45555 | 1.79550 | 35231 ft | 438 kts | 175° |
| 2026-05-01 14:30 | 43.33518 | 1.81949 | 35218 ft | 438 kts | 175° |
| 2026-05-01 14:31 | 43.24447 | 1.83763 | 35212 ft | 439 kts | 174° |
| 2026-05-01 14:31 | 43.18385 | 1.84947 | 35212 ft | 440 kts | 174° |
| 2026-05-01 14:32 | 43.12309 | 1.86143 | 35219 ft | 441 kts | 174° |
| 2026-05-01 14:32 | 43.06262 | 1.87330 | 35208 ft | 442 kts | 174° |
| 2026-05-01 14:33 | 43.00167 | 1.88530 | 35203 ft | 443 kts | 174° |
| 2026-05-01 14:33 | 42.94062 | 1.89729 | 35206 ft | 444 kts | 174° |
| 2026-05-01 14:34 | 42.87945 | 1.90924 | 35209 ft | 444 kts | 173° |
| 2026-05-01 14:34 | 42.81826 | 1.92124 | 35222 ft | 444 kts | 174° |
| 2026-05-01 14:35 | 42.75709 | 1.93313 | 35240 ft | 443 kts | 175° |
| 2026-05-01 14:35 | 42.69602 | 1.94489 | 35238 ft | 443 kts | 174° |
| 2026-05-01 14:36 | 42.63481 | 1.95678 | 35250 ft | 443 kts | 175° |
| 2026-05-01 14:36 | 42.57359 | 1.96876 | 35263 ft | 444 kts | 174° |
| 2026-05-01 14:37 | 42.51274 | 1.98058 | 35269 ft | 444 kts | 174° |
| 2026-05-01 14:37 | 42.45146 | 1.99240 | 35273 ft | 444 kts | 174° |
| 2026-05-01 14:38 | 42.39031 | 2.00407 | 35279 ft | 444 kts | 174° |
| 2026-05-01 14:38 | 42.32911 | 2.01395 | 35282 ft | 442 kts | 177° |
| 2026-05-01 14:39 | 42.26780 | 2.01938 | 35280 ft | 441 kts | 179° |
| 2026-05-01 14:39 | 42.20651 | 2.02394 | 35275 ft | 441 kts | 179° |
| 2026-05-01 14:40 | 42.14534 | 2.02927 | 35272 ft | 440 kts | 178° |
| 2026-05-01 14:40 | 42.08424 | 2.03517 | 35275 ft | 440 kts | 178° |
| 2026-05-01 14:41 | 42.02378 | 2.04105 | 35276 ft | 440 kts | 178° |
| 2026-05-01 14:41 | 41.96279 | 2.04680 | 35270 ft | 439 kts | 178° |
| 2026-05-01 14:42 | 41.90187 | 2.05238 | 35263 ft | 438 kts | 178° |
| 2026-05-01 14:42 | 41.84105 | 2.05808 | 35259 ft | 438 kts | 178° |
| 2026-05-01 14:43 | 41.78032 | 2.06380 | 35260 ft | 437 kts | 178° |
| 2026-05-01 14:43 | 41.71959 | 2.06953 | 35250 ft | 437 kts | 178° |
| 2026-05-01 14:44 | 41.65880 | 2.07531 | 35251 ft | 438 kts | 178° |
| 2026-05-01 14:44 | 41.56746 | 2.08372 | 35250 ft | 438 kts | 178° |
| 2026-05-01 14:45 | 41.47626 | 2.09210 | 35254 ft | 438 kts | 179° |
| 2026-05-01 14:46 | 41.41542 | 2.09780 | 35251 ft | 439 kts | 179° |
| 2026-05-01 14:46 | 41.32408 | 2.10633 | 35253 ft | 438 kts | 178° |
| 2026-05-01 14:47 | 41.26369 | 2.11351 | 35254 ft | 439 kts | 175° |
| 2026-05-01 14:48 | 41.17303 | 2.13006 | 35244 ft | 433 kts | 174° |
| 2026-05-01 14:48 | 41.08242 | 2.14596 | 35242 ft | 441 kts | 175° |
| 2026-05-01 14:49 | 40.96059 | 2.16580 | 35221 ft | 441 kts | 175° |
| 2026-05-01 14:50 | 40.83844 | 2.18615 | 35210 ft | 442 kts | 175° |
| 2026-05-01 14:51 | 40.74678 | 2.20134 | 35209 ft | 443 kts | 175° |
| 2026-05-01 14:52 | 40.65503 | 2.21654 | 35209 ft | 443 kts | 175° |
| 2026-05-01 14:53 | 40.56313 | 2.23168 | 35209 ft | 444 kts | 175° |
| 2026-05-01 14:53 | 40.50210 | 2.24160 | 35219 ft | 444 kts | 175° |
| 2026-05-01 14:54 | 40.44073 | 2.25167 | 35209 ft | 444 kts | 174° |
| 2026-05-01 14:54 | 40.37952 | 2.26330 | 35211 ft | 445 kts | 172° |
| 2026-05-01 14:55 | 40.31873 | 2.27936 | 35211 ft | 446 kts | 169° |
| 2026-05-01 14:55 | 40.25807 | 2.29648 | 35206 ft | 446 kts | 170° |
| 2026-05-01 14:56 | 40.19714 | 2.31261 | 35212 ft | 446 kts | 171° |
| 2026-05-01 14:56 | 40.13627 | 2.32816 | 35215 ft | 446 kts | 171° |
| 2026-05-01 14:57 | 40.07539 | 2.34377 | 35215 ft | 446 kts | 171° |
| 2026-05-01 14:57 | 39.98407 | 2.36718 | 35207 ft | 446 kts | 171° |
| 2026-05-01 14:58 | 39.92325 | 2.38278 | 35205 ft | 445 kts | 171° |
| 2026-05-01 14:58 | 39.86280 | 2.39828 | 35201 ft | 445 kts | 171° |
| 2026-05-01 14:59 | 39.80197 | 2.41386 | 35202 ft | 445 kts | 171° |
| 2026-05-01 14:59 | 39.74082 | 2.42384 | 35192 ft | 442 kts | 183° |
| 2026-05-01 15:00 | 39.64930 | 2.41101 | 35199 ft | 441 kts | 188° |
| 2026-05-01 15:01 | 39.58931 | 2.39625 | 35199 ft | 438 kts | 201° |
| 2026-05-01 15:01 | 39.56182 | 2.37952 | 35195 ft | 436 kts | 212° |
| 2026-05-01 15:01 | 39.53724 | 2.35666 | 35197 ft | 435 kts | 222° |
| 2026-05-01 15:02 | 39.49904 | 2.29637 | 35199 ft | 434 kts | 237° |
| 2026-05-01 15:02 | 39.46597 | 2.23097 | 35206 ft | 434 kts | 237° |
| 2026-05-01 15:03 | 39.43297 | 2.16607 | 35207 ft | 435 kts | 237° |
| 2026-05-01 15:03 | 39.40004 | 2.10168 | 35196 ft | 422 kts | 237° |
| 2026-05-01 15:04 | 39.36779 | 2.03863 | 35193 ft | 420 kts | 237° |
| 2026-05-01 15:04 | 39.33566 | 1.97571 | 35192 ft | 419 kts | 237° |
| 2026-05-01 15:05 | 39.30339 | 1.91263 | 35193 ft | 422 kts | 237° |
| 2026-05-01 15:05 | 39.27099 | 1.84955 | 35193 ft | 421 kts | 237° |
| 2026-05-01 15:06 | 39.23858 | 1.78669 | 35158 ft | 421 kts | 237° |
| 2026-05-01 15:06 | 39.22231 | 1.75512 | 34193 ft | 425 kts | 237° |
| 2026-05-01 15:06 | 39.20576 | 1.72308 | 32666 ft | 433 kts | 236° |
| 2026-05-01 15:06 | 39.18857 | 1.69148 | 31341 ft | 438 kts | 234° |
| 2026-05-01 15:07 | 39.17022 | 1.65981 | 30004 ft | 442 kts | 232° |
| 2026-05-01 15:07 | 39.15135 | 1.62843 | 28271 ft | 445 kts | 232° |
| 2026-05-01 15:07 | 39.13210 | 1.59693 | 26534 ft | 449 kts | 231° |
| 2026-05-01 15:07 | 39.11261 | 1.56498 | 24915 ft | 456 kts | 231° |
| 2026-05-01 15:08 | 39.09325 | 1.53298 | 23917 ft | 449 kts | 232° |
| 2026-05-01 15:08 | 39.07429 | 1.50133 | 22757 ft | 443 kts | 233° |
| 2026-05-01 15:08 | 39.05573 | 1.47015 | 21648 ft | 436 kts | 233° |
| 2026-05-01 15:08 | 39.03751 | 1.43935 | 20611 ft | 429 kts | 233° |
| 2026-05-01 15:09 | 39.01977 | 1.40893 | 19611 ft | 422 kts | 233° |
| 2026-05-01 15:09 | 39.00258 | 1.37909 | 19032 ft | 403 kts | 234° |
| 2026-05-01 15:09 | 38.98654 | 1.35114 | 18844 ft | 375 kts | 234° |
| 2026-05-01 15:09 | 38.97136 | 1.32480 | 18418 ft | 357 kts | 233° |
| 2026-05-01 15:10 | 38.95683 | 1.29972 | 17930 ft | 341 kts | 233° |
| 2026-05-01 15:10 | 38.92950 | 1.25275 | 17003 ft | 316 kts | 233° |
| 2026-05-01 15:10 | 38.91672 | 1.23086 | 16602 ft | 305 kts | 233° |
| 2026-05-01 15:11 | 38.90424 | 1.20944 | 16227 ft | 294 kts | 234° |
| 2026-05-01 15:11 | 38.88201 | 1.16760 | 15484 ft | 274 kts | 243° |
| 2026-05-01 15:11 | 38.87315 | 1.14617 | 15036 ft | 269 kts | 243° |
| 2026-05-01 15:12 | 38.86439 | 1.12507 | 14576 ft | 266 kts | 243° |
| 2026-05-01 15:12 | 38.84998 | 1.09055 | 13747 ft | 263 kts | 243° |
| 2026-05-01 15:12 | 38.84133 | 1.06992 | 13207 ft | 261 kts | 242° |
| 2026-05-01 15:13 | 38.81575 | 1.00879 | 11635 ft | 257 kts | 242° |
| 2026-05-01 15:14 | 38.79892 | 0.96864 | 10653 ft | 252 kts | 242° |
| 2026-05-01 15:14 | 38.79042 | 0.94888 | 9759 ft | 253 kts | 242° |
| 2026-05-01 15:14 | 38.77340 | 0.90934 | 8736 ft | 254 kts | 242° |
| 2026-05-01 15:15 | 38.75640 | 0.87000 | 7765 ft | 250 kts | 242° |
| 2026-05-01 15:15 | 38.73970 | 0.83174 | 6898 ft | 242 kts | 242° |
| 2026-05-01 15:16 | 38.72340 | 0.79432 | 6235 ft | 240 kts | 242° |
| 2026-05-01 15:16 | 38.70709 | 0.75727 | 5669 ft | 238 kts | 242° |
| 2026-05-01 15:17 | 38.69055 | 0.72106 | 5153 ft | 237 kts | 242° |
| 2026-05-01 15:18 | 38.65651 | 0.67835 | 4397 ft | 242 kts | 188° |
| 2026-05-01 15:18 | 38.63989 | 0.68007 | 4144 ft | 241 kts | 158° |
| 2026-05-01 15:19 | 38.61758 | 0.73003 | 4003 ft | 230 kts | 75° |
| 2026-05-01 15:19 | 38.63040 | 0.76710 | 4017 ft | 229 kts | 62° |
| 2026-05-01 15:19 | 38.63739 | 0.78543 | 4012 ft | 229 kts | 62° |
| 2026-05-01 15:20 | 38.65139 | 0.82207 | 4016 ft | 229 kts | 62° |
| 2026-05-01 15:20 | 38.65840 | 0.84045 | 4004 ft | 230 kts | 62° |
| 2026-05-01 15:20 | 38.66535 | 0.85874 | 4011 ft | 231 kts | 62° |
| 2026-05-01 15:21 | 38.67236 | 0.87723 | 4012 ft | 229 kts | 63° |
| 2026-05-01 15:21 | 38.67913 | 0.89515 | 4007 ft | 221 kts | 62° |
| 2026-05-01 15:21 | 38.68579 | 0.91276 | 4008 ft | 220 kts | 62° |
| 2026-05-01 15:21 | 38.69247 | 0.93043 | 4009 ft | 220 kts | 63° |
| 2026-05-01 15:22 | 38.70579 | 0.96576 | 4010 ft | 220 kts | 63° |
| 2026-05-01 15:22 | 38.71236 | 0.98319 | 4006 ft | 220 kts | 63° |
| 2026-05-01 15:22 | 38.71902 | 1.00085 | 4008 ft | 220 kts | 62° |
| 2026-05-01 15:23 | 38.72584 | 1.01847 | 3933 ft | 220 kts | 62° |
| 2026-05-01 15:23 | 38.73264 | 1.03604 | 3809 ft | 219 kts | 61° |
| 2026-05-01 15:23 | 38.73965 | 1.05323 | 3628 ft | 216 kts | 60° |
| 2026-05-01 15:23 | 38.74674 | 1.07021 | 3462 ft | 215 kts | 60° |
| 2026-05-01 15:24 | 38.75381 | 1.08711 | 3285 ft | 215 kts | 60° |
| 2026-05-01 15:24 | 38.76086 | 1.10396 | 3120 ft | 215 kts | 60° |
| 2026-05-01 15:24 | 38.76791 | 1.12084 | 3024 ft | 214 kts | 60° |
| 2026-05-01 15:24 | 38.77494 | 1.13768 | 3007 ft | 215 kts | 60° |
| 2026-05-01 15:25 | 38.78199 | 1.15457 | 3010 ft | 214 kts | 60° |
| 2026-05-01 15:25 | 38.78902 | 1.17141 | 3011 ft | 214 kts | 60° |
| 2026-05-01 15:25 | 38.79604 | 1.18826 | 2909 ft | 213 kts | 60° |
| 2026-05-01 15:25 | 38.80289 | 1.20472 | 2678 ft | 205 kts | 60° |
| 2026-05-01 15:26 | 38.80934 | 1.22021 | 2418 ft | 196 kts | 61° |
| 2026-05-01 15:26 | 38.81562 | 1.23528 | 2166 ft | 183 kts | 61° |
| 2026-05-01 15:26 | 38.82125 | 1.24883 | 1952 ft | 164 kts | 61° |
| 2026-05-01 15:26 | 38.82632 | 1.26101 | 1732 ft | 148 kts | 61° |
| 2026-05-01 15:27 | 38.83107 | 1.27242 | 1534 ft | 143 kts | 61° |
| 2026-05-01 15:27 | 38.83571 | 1.28360 | 1349 ft | 141 kts | 62° |
| 2026-05-01 15:27 | 38.84031 | 1.29466 | 1158 ft | 140 kts | 62° |
| 2026-05-01 15:28 | 38.84945 | 1.31667 | 788 ft | 140 kts | 62° |
| 2026-05-01 15:28 | 38.85401 | 1.32769 | 619 ft | 140 kts | 62° |
| 2026-05-01 15:28 | 38.85854 | 1.33868 | 420 ft | 139 kts | 63° |
| 2026-05-01 15:29 | 38.86745 | 1.36018 | 25 ft | 135 kts | 63° |
| 2026-05-01 15:29 | 38.87103 | 1.36889 | 10 ft | 78 kts | 62° |
| 2026-05-01 15:29 | 38.87413 | 1.37465 | 10 ft | 28 kts | 31° |
| 2026-05-01 15:30 | 38.87507 | 1.37542 | 9 ft | 0 kts | 33° |
| 2026-05-01 15:31 | 38.87540 | 1.37566 | 9 ft | 0 kts | 22° |